Time;durP1;ratioP1;P1;durP2;ratioP2;P2;SDS_P1;SDS_P2;PMS_P1;PMS_P2;Temp;Humidity;BMP_temperature;BMP_pressure;BME280_temperature;BME280_humidity;BME280_pressure;Samples;Min_cycle;Max_cycle;Signal;HPM_P1;HPM_P2
2022/06/17 00:02:09;;;;;;;5.68;3.92;;;24.00;65.30;;;;;;6155415;28;80597;-74
2022/06/17 00:05:10;;;;;;;6.88;4.32;;;24.00;65.20;;;;;;6140835;28;80156;-74
2022/06/17 00:08:10;;;;;;;8.27;3.88;;;24.00;65.10;;;;;;6137887;28;81837;-74
2022/06/17 00:11:11;;;;;;;5.53;3.58;;;24.00;65.00;;;;;;6147395;28;80320;-73
2022/06/17 00:14:11;;;;;;;9.57;4.40;;;24.00;65.10;;;;;;6153015;28;81571;-72
2022/06/17 00:17:12;;;;;;;6.60;3.70;;;24.00;64.90;;;;;;6136651;28;80997;-72
2022/06/17 00:20:12;;;;;;;10.77;4.20;;;24.00;64.90;;;;;;6129543;28;80391;-73
2022/06/17 00:23:13;;;;;;;9.27;3.50;;;24.00;64.80;;;;;;6139177;28;80108;-72
2022/06/17 00:26:13;;;;;;;4.78;3.60;;;24.00;64.80;;;;;;6145350;28;80700;-72
2022/06/17 00:29:15;;;;;;;4.85;3.75;;;24.00;64.70;;;;;;6143058;28;80346;-72
2022/06/17 00:32:15;;;;;;;6.63;3.22;;;24.00;64.70;;;;;;6138411;28;80318;-72
2022/06/17 00:35:15;;;;;;;9.77;3.85;;;24.00;64.60;;;;;;6139767;28;80375;-72
2022/06/17 00:38:16;;;;;;;5.57;3.80;;;24.00;64.60;;;;;;6141839;28;80179;-73
2022/06/17 00:41:16;;;;;;;9.65;4.28;;;24.00;64.50;;;;;;6137067;28;83824;-72
2022/06/17 00:44:17;;;;;;;4.40;3.38;;;24.00;64.40;;;;;;6136500;28;81453;-73
2022/06/17 00:47:17;;;;;;;4.20;3.65;;;24.00;64.30;;;;;;6138748;28;80984;-73
2022/06/17 00:50:18;;;;;;;6.22;3.88;;;24.00;65.00;;;;;;6150518;28;80478;-73
2022/06/17 00:53:19;;;;;;;6.57;3.60;;;24.00;64.40;;;;;;6138243;28;80424;-73
2022/06/17 00:56:21;;;;;;;12.43;3.60;;;24.00;64.30;;;;;;6134907;28;83586;-74
2022/06/17 00:59:22;;;;;;;5.30;3.78;;;24.00;64.30;;;;;;6138567;28;80925;-72
2022/06/17 01:02:22;;;;;;;5.90;3.85;;;24.00;64.30;;;;;;6136634;28;83548;-71
2022/06/17 01:05:23;;;;;;;7.75;4.18;;;24.00;64.30;;;;;;6138259;28;81596;-71
2022/06/17 01:11:43;;;;;;;8.10;4.10;;;24.00;64.10;;;;;;6143018;28;87499;-72
2022/06/17 01:14:43;;;;;;;6.68;4.35;;;24.00;64.20;;;;;;6141212;28;82992;-71
2022/06/17 01:17:44;;;;;;;5.03;3.88;;;24.00;64.10;;;;;;6138305;28;81788;-72
2022/06/17 01:20:47;;;;;;;7.63;4.50;;;24.00;64.10;;;;;;6138987;28;83361;-71
2022/06/17 01:23:48;;;;;;;8.20;4.93;;;24.10;63.90;;;;;;6142524;28;83127;-71
2022/06/17 01:26:48;;;;;;;7.97;4.35;;;24.10;64.00;;;;;;6143429;28;82997;-71
2022/06/17 01:29:50;;;;;;;8.70;4.70;;;24.10;64.00;;;;;;6147784;28;82195;-70
2022/06/17 01:32:51;;;;;;;8.43;4.18;;;24.00;64.00;;;;;;6135645;28;83338;-70
2022/06/17 01:35:51;;;;;;;10.77;4.60;;;24.00;64.10;;;;;;6134176;28;80497;-72
2022/06/17 01:38:52;;;;;;;7.90;4.45;;;24.00;64.00;;;;;;6131286;28;83195;-74
2022/06/17 01:41:53;;;;;;;7.18;4.72;;;24.00;64.00;;;;;;6133058;28;83264;-74
2022/06/17 01:44:54;;;;;;;7.03;5.13;;;24.00;64.00;;;;;;6136129;28;83131;-72
2022/06/17 01:47:55;;;;;;;8.05;4.95;;;24.00;64.10;;;;;;6145154;28;81761;-72
2022/06/17 01:50:56;;;;;;;6.85;4.80;;;24.00;64.20;;;;;;6139443;28;82801;-72
2022/06/17 01:53:57;;;;;;;7.05;4.70;;;24.00;64.20;;;;;;6137993;28;82092;-71
2022/06/17 01:56:58;;;;;;;11.05;6.13;;;24.00;64.20;;;;;;6135387;28;81538;-71
2022/06/17 01:59:59;;;;;;;9.05;4.93;;;24.00;64.10;;;;;;6133090;28;83232;-72
2022/06/17 02:03:15;;;;;;;9.27;4.53;;;24.00;64.20;;;;;;6134320;28;80381;-71
2022/06/17 02:06:16;;;;;;;7.20;5.00;;;24.00;64.30;;;;;;6137206;28;80456;-71
2022/06/17 02:09:16;;;;;;;9.00;5.38;;;24.00;64.20;;;;;;6124110;28;82172;-70
2022/06/17 02:12:19;;;;;;;8.23;4.57;;;24.00;64.10;;;;;;6139904;28;82534;-70
2022/06/17 02:15:26;;;;;;;7.47;5.00;;;24.00;64.20;;;;;;6135785;28;81552;-68
2022/06/17 02:18:32;;;;;;;9.65;4.68;;;24.00;64.10;;;;;;6146320;28;80768;-69
2022/06/17 02:21:38;;;;;;;9.63;5.00;;;23.90;64.00;;;;;;6143071;28;80592;-69
2022/06/17 02:24:39;;;;;;;7.05;4.20;;;23.90;64.80;;;;;;6132039;28;82269;-68
2022/06/17 02:27:39;;;;;;;8.02;4.57;;;23.90;63.90;;;;;;6149490;28;83171;-69
2022/06/17 02:30:40;;;;;;;8.18;4.50;;;23.90;63.90;;;;;;6142889;28;81902;-69
2022/06/17 02:33:41;;;;;;;7.53;4.40;;;23.90;63.80;;;;;;6135459;28;81492;-69
2022/06/17 02:36:41;;;;;;;5.88;4.28;;;23.90;63.90;;;;;;6141323;28;82885;-69
2022/06/17 02:39:42;;;;;;;8.45;3.97;;;23.90;64.40;;;;;;6153220;28;80458;-70
2022/06/17 02:42:45;;;;;;;6.07;3.90;;;23.90;63.70;;;;;;6137995;28;81874;-70
2022/06/17 02:45:46;;;;;;;7.45;4.30;;;23.90;63.60;;;;;;6144892;28;83180;-71
2022/06/17 02:48:47;;;;;;;6.40;4.00;;;23.90;63.60;;;;;;6124840;28;86739;-71
2022/06/17 02:51:47;;;;;;;7.45;3.83;;;23.90;63.50;;;;;;6133758;28;83087;-71
2022/06/17 02:54:50;;;;;;;10.00;4.25;;;23.90;63.50;;;;;;6127272;28;81680;-71
2022/06/17 02:57:51;;;;;;;6.65;4.00;;;23.90;63.50;;;;;;6132702;28;83119;-72
2022/06/17 03:00:52;;;;;;;6.60;4.00;;;23.90;63.50;;;;;;6134069;28;82943;-70
2022/06/17 03:03:52;;;;;;;6.78;4.50;;;23.90;63.50;;;;;;6133692;28;83241;-70
2022/06/17 03:06:53;;;;;;;7.32;4.30;;;23.90;63.50;;;;;;6136958;28;80198;-69
2022/06/17 03:09:55;;;;;;;6.97;4.72;;;23.90;63.50;;;;;;6133811;28;83057;-69
2022/06/17 03:12:55;;;;;;;6.35;4.00;;;23.90;63.50;;;;;;6134249;28;83492;-69
2022/06/17 03:15:56;;;;;;;6.72;4.22;;;23.90;63.60;;;;;;6133496;28;83114;-70
2022/06/17 03:18:57;;;;;;;11.75;4.35;;;23.90;63.60;;;;;;6138360;28;80632;-70
2022/06/17 03:21:57;;;;;;;7.13;3.78;;;23.90;63.40;;;;;;6120599;28;83174;-70
2022/06/17 03:24:58;;;;;;;10.82;4.25;;;23.90;63.30;;;;;;6167670;28;82594;-71
2022/06/17 03:27:59;;;;;;;6.40;4.13;;;23.90;63.30;;;;;;6129862;28;83022;-70
2022/06/17 03:31:00;;;;;;;6.28;4.20;;;23.90;63.30;;;;;;6130261;28;81324;-71
2022/06/17 03:34:00;;;;;;;8.77;4.35;;;23.90;63.40;;;;;;6115281;28;83708;-72
2022/06/17 03:37:01;;;;;;;6.10;3.65;;;24.00;64.10;;;;;;6125169;28;81952;-71
2022/06/17 03:40:03;;;;;;;8.48;4.55;;;24.00;63.60;;;;;;6131201;28;82096;-72
2022/06/17 03:43:03;;;;;;;6.38;3.78;;;24.00;63.60;;;;;;6121936;28;81424;-71
2022/06/17 03:46:05;;;;;;;6.00;3.75;;;24.00;63.60;;;;;;6129348;28;81709;-72
2022/06/17 03:49:07;;;;;;;8.35;4.03;;;24.00;63.60;;;;;;6133329;28;80769;-71
2022/06/17 03:52:08;;;;;;;12.43;4.72;;;24.00;63.60;;;;;;6130130;28;82889;-72
2022/06/17 03:55:08;;;;;;;5.55;4.25;;;24.00;63.60;;;;;;6132993;28;83237;-72
2022/06/17 03:58:09;;;;;;;8.20;4.53;;;24.00;63.60;;;;;;6128910;28;81453;-72
2022/06/17 04:01:22;;;;;;;7.72;4.43;;;24.00;63.60;;;;;;6129617;28;83461;-72
2022/06/17 04:04:30;;;;;;;7.18;3.97;;;24.00;63.60;;;;;;6132937;28;83249;-72
2022/06/17 04:07:34;;;;;;;10.70;5.55;;;24.00;63.70;;;;;;6133631;28;83306;-72
2022/06/17 04:10:35;;;;;;;9.02;5.00;;;24.00;63.60;;;;;;6133136;28;83593;-73
2022/06/17 04:13:37;;;;;;;9.73;4.68;;;24.00;63.80;;;;;;6138849;28;83260;-72
2022/06/17 04:16:38;;;;;;;9.05;5.25;;;24.00;63.90;;;;;;6136996;28;83382;-71
2022/06/17 04:19:39;;;;;;;7.35;4.30;;;24.00;63.60;;;;;;6142479;28;82982;-64
2022/06/17 04:22:40;;;;;;;8.40;4.35;;;24.00;63.40;;;;;;6127133;28;83306;-67
2022/06/17 04:25:52;;;;;;;8.90;4.75;;;24.00;64.20;;;;;;6133685;28;83944;-69
2022/06/17 04:28:52;;;;;;;6.63;4.28;;;24.10;64.20;;;;;;6135948;28;83069;-68
2022/06/17 04:31:57;;;;;;;6.80;4.38;;;24.10;64.10;;;;;;6131279;28;83169;-69
2022/06/17 04:34:58;;;;;;;6.65;4.50;;;24.10;64.20;;;;;;6127929;28;83022;-68
2022/06/17 04:38:02;;;;;;;7.82;5.03;;;24.10;64.30;;;;;;6136155;28;82707;-67
2022/06/17 04:41:21;;;;;;;6.22;4.55;;;24.10;64.60;;;;;;6132813;28;80493;-69
2022/06/17 04:44:38;;;;;;;;;;;24.00;64.40;;;;;;6129126;28;84770;-69
2022/06/17 04:47:39;;;;;;;13.38;5.07;;;24.00;64.40;;;;;;6134785;28;80537;-68
2022/06/17 04:50:49;;;;;;;16.73;6.03;;;24.10;64.50;;;;;;6126764;28;80747;-69
2022/06/17 04:53:50;;;;;;;10.45;5.40;;;24.10;64.80;;;;;;6142433;28;83044;-68
2022/06/17 04:57:19;;;;;;;10.02;5.30;;;24.10;65.10;;;;;;6128106;28;80402;-69
2022/06/17 05:00:22;;;;;;;10.85;6.45;;;24.10;65.10;;;;;;6129682;28;84056;-68
2022/06/17 05:03:26;;;;;;;8.52;5.93;;;24.20;65.80;;;;;;6138732;28;81253;-65
2022/06/17 05:06:45;;;;;;;9.75;5.50;;;24.20;66.00;;;;;;6137770;28;80405;-64
2022/06/17 05:09:47;;;;;;;9.07;5.45;;;24.20;65.90;;;;;;6138354;28;83387;-66
2022/06/17 05:12:52;;;;;;;14.15;5.68;;;24.20;65.70;;;;;;6129980;28;81311;-66
2022/06/17 05:15:53;;;;;;;13.38;6.22;;;24.20;65.90;;;;;;6137602;28;81527;-69
2022/06/17 05:18:54;;;;;;;8.75;5.32;;;24.20;66.40;;;;;;6130437;28;82235;-73
2022/06/17 05:21:55;;;;;;;12.27;5.50;;;24.20;66.30;;;;;;6135780;28;81433;-70
2022/06/17 05:24:59;;;;;;;10.23;5.50;;;24.20;66.30;;;;;;6129689;28;83333;-71
2022/06/17 05:28:00;;;;;;;11.50;6.88;;;24.20;66.50;;;;;;6125569;28;83031;-70
2022/06/17 05:31:01;;;;;;;18.92;7.95;;;24.20;66.50;;;;;;6127004;28;82850;-70
2022/06/17 05:34:20;;;;;;;19.85;10.43;;;24.20;66.60;;;;;;6123382;28;82604;-69
2022/06/17 05:37:21;;;;;;;17.05;10.90;;;24.10;66.20;;;;;;6128687;28;83056;-65
2022/06/17 05:40:26;;;;;;;14.40;9.95;;;24.00;66.30;;;;;;6130499;28;85865;-69
2022/06/17 05:43:26;;;;;;;17.10;8.90;;;24.10;66.40;;;;;;6126557;28;85259;-69
2022/06/17 05:46:27;;;;;;;14.45;8.63;;;24.00;66.60;;;;;;6139475;28;82441;-69
2022/06/17 05:49:41;;;;;;;17.58;9.50;;;24.10;66.70;;;;;;6146856;28;82628;-71
2022/06/17 05:53:11;;;;;;;23.23;9.45;;;24.10;66.70;;;;;;6115253;28;81325;-69
2022/06/17 05:56:34;;;;;;;17.88;9.05;;;24.10;66.80;;;;;;6117519;28;85874;-70
2022/06/17 05:59:35;;;;;;;13.52;7.43;;;24.10;66.80;;;;;;6134138;28;83096;-72
2022/06/17 06:02:35;;;;;;;20.95;9.30;;;24.10;67.60;;;;;;6128351;28;80480;-69
2022/06/17 06:05:39;;;;;;;20.10;8.50;;;24.10;66.60;;;;;;6122633;28;81804;-70
2022/06/17 06:08:45;;;;;;;23.15;9.25;;;24.10;66.70;;;;;;6136335;28;83311;-71
2022/06/17 06:11:45;;;;;;;17.50;8.70;;;24.10;67.00;;;;;;6126898;28;83059;-73
2022/06/17 06:14:49;;;;;;;13.27;8.13;;;24.10;66.90;;;;;;6142798;28;82886;-70
2022/06/17 06:17:52;;;;;;;11.63;8.13;;;24.20;66.90;;;;;;6127100;28;83366;-71
2022/06/17 06:20:53;;;;;;;20.20;8.43;;;24.20;67.10;;;;;;6132330;28;81407;-68
2022/06/17 06:23:56;;;;;;;12.40;8.18;;;24.30;66.50;;;;;;6133621;28;83044;-72
2022/06/17 06:27:02;;;;;;;13.23;8.48;;;24.20;66.00;;;;;;6129183;28;83249;-71
2022/06/17 06:30:25;;;;;;;14.40;8.23;;;24.20;65.80;;;;;;6134028;28;81236;-69
2022/06/17 06:33:27;;;;;;;12.13;7.63;;;24.10;65.20;;;;;;6128940;28;83334;-66
2022/06/17 06:36:27;;;;;;;11.98;7.20;;;24.10;64.90;;;;;;6136359;28;81448;-71
2022/06/17 06:39:29;;;;;;;14.10;7.05;;;24.20;64.80;;;;;;6130903;28;84239;-66
2022/06/17 06:42:33;;;;;;;14.73;8.00;;;24.30;65.30;;;;;;6135015;28;81570;-73
2022/06/17 06:45:53;;;;;;;13.77;7.72;;;24.30;66.40;;;;;;6087000;28;80428;-72
2022/06/17 06:48:54;;;;;;;14.75;7.75;;;24.30;66.00;;;;;;6115023;28;83083;-73
2022/06/17 06:51:54;;;;;;;13.35;8.68;;;24.30;65.80;;;;;;6123306;28;82203;-70
2022/06/17 06:54:55;;;;;;;13.93;9.00;;;24.30;65.50;;;;;;6126483;28;81154;-73
2022/06/17 06:57:56;;;;;;;13.45;8.95;;;24.20;65.30;;;;;;6120290;28;81184;-72
2022/06/17 07:00:56;;;;;;;23.05;8.55;;;24.10;65.10;;;;;;6115717;28;82590;-79
2022/06/17 07:03:58;;;;;;;10.82;8.23;;;24.20;65.10;;;;;;6126130;28;83182;-68
2022/06/17 07:06:59;;;;;;;22.67;8.40;;;24.20;64.60;;;;;;6128715;28;81528;-65
2022/06/17 07:09:59;;;;;;;67.82;30.73;;;24.20;64.20;;;;;;6135942;28;80437;-68
2022/06/17 07:13:00;;;;;;;149.02;68.78;;;24.20;64.60;;;;;;6134684;28;82965;-72
2022/06/17 07:16:01;;;;;;;235.73;106.13;;;24.20;64.50;;;;;;6128167;28;84442;-71
2022/06/17 07:19:07;;;;;;;275.88;124.68;;;24.20;64.60;;;;;;6127883;28;85594;-78
2022/06/17 07:22:07;;;;;;;257.30;114.85;;;24.20;64.50;;;;;;6129157;28;85632;-73
2022/06/17 07:25:08;;;;;;;322.77;137.70;;;24.20;64.50;;;;;;6129374;28;86298;-70
2022/06/17 07:28:08;;;;;;;193.00;87.60;;;24.20;64.50;;;;;;6129341;28;86027;-69
2022/06/17 07:31:09;;;;;;;158.32;69.32;;;24.20;64.10;;;;;;6134730;28;84116;-70
2022/06/17 07:34:09;;;;;;;118.85;47.88;;;24.20;64.20;;;;;;6116227;28;83726;-67
2022/06/17 07:40:29;;;;;;;42.85;21.42;;;24.20;64.40;;;;;;6127014;28;83370;-67
2022/06/17 07:43:30;;;;;;;37.72;18.75;;;24.20;64.60;;;;;;6123629;28;83021;-67
2022/06/17 07:46:31;;;;;;;42.72;17.55;;;24.20;64.70;;;;;;6126541;28;83377;-68
2022/06/17 07:49:31;;;;;;;39.88;18.00;;;24.20;64.60;;;;;;6119039;28;83128;-68
2022/06/17 07:52:32;;;;;;;22.33;13.65;;;24.20;64.90;;;;;;6128476;28;83049;-69
2022/06/17 07:55:32;;;;;;;20.20;12.65;;;24.30;67.10;;;;;;6127725;28;83733;-68
2022/06/17 07:58:33;;;;;;;20.45;12.63;;;24.20;67.20;;;;;;6133648;28;82893;-68
2022/06/17 08:01:33;;;;;;;20.88;12.15;;;24.30;67.40;;;;;;6129937;28;83946;-67
2022/06/17 08:04:35;;;;;;;19.85;10.48;;;24.30;66.60;;;;;;6125544;28;83089;-67
2022/06/17 08:07:36;;;;;;;14.98;10.55;;;24.30;66.40;;;;;;6125518;28;84086;-67
2022/06/17 08:10:36;;;;;;;17.42;11.23;;;24.30;66.60;;;;;;6128196;28;83275;-63
2022/06/17 08:13:37;;;;;;;18.48;10.35;;;24.30;65.80;;;;;;6129985;28;83277;-68
2022/06/17 08:16:38;;;;;;;18.17;11.45;;;24.30;66.00;;;;;;6138641;28;84192;-69
2022/06/17 08:19:38;;;;;;;18.10;10.18;;;24.30;65.20;;;;;;6129031;28;83238;-70
2022/06/17 08:22:41;;;;;;;16.05;10.38;;;24.20;65.70;;;;;;6132740;28;84060;-72
2022/06/17 08:25:42;;;;;;;12.38;9.98;;;24.20;65.60;;;;;;6129959;28;83312;-69
2022/06/17 08:28:42;;;;;;;15.23;11.20;;;24.30;65.00;;;;;;6131544;28;84181;-69
2022/06/17 08:31:43;;;;;;;17.33;9.80;;;24.30;65.00;;;;;;6134138;28;82886;-69
2022/06/17 08:34:43;;;;;;;23.88;10.75;;;24.30;64.60;;;;;;6137049;28;83200;-68
2022/06/17 08:37:44;;;;;;;23.73;10.70;;;24.20;64.70;;;;;;6119077;28;84225;-69
2022/06/17 08:40:44;;;;;;;13.77;10.15;;;24.20;64.60;;;;;;6128756;28;82987;-69
2022/06/17 08:43:45;;;;;;;20.30;11.40;;;24.30;64.60;;;;;;6122833;28;83363;-72
2022/06/17 08:46:45;;;;;;;22.00;11.43;;;24.30;64.40;;;;;;6120994;28;84281;-71
2022/06/17 08:49:46;;;;;;;15.93;11.00;;;24.30;64.10;;;;;;6129925;28;83079;-71
2022/06/17 08:52:46;;;;;;;16.10;10.52;;;24.40;63.80;;;;;;6132685;28;82987;-72
2022/06/17 08:55:47;;;;;;;18.08;11.25;;;24.40;63.70;;;;;;6127554;28;83408;-72
2022/06/17 08:58:47;;;;;;;14.52;11.30;;;24.40;63.40;;;;;;6127696;28;83178;-70
2022/06/17 09:01:47;;;;;;;19.00;11.25;;;24.50;63.50;;;;;;6128849;28;83646;-70
2022/06/17 09:04:49;;;;;;;16.75;10.75;;;24.40;63.50;;;;;;6130677;28;83493;-65
2022/06/17 09:07:49;;;;;;;15.75;12.25;;;24.40;63.30;;;;;;6133412;28;83011;-70
2022/06/17 09:10:50;;;;;;;15.73;10.98;;;24.30;63.10;;;;;;6131448;28;82656;-71
2022/06/17 09:13:51;;;;;;;16.92;10.25;;;24.40;63.40;;;;;;6133832;28;83433;-70
2022/06/17 09:16:51;;;;;;;24.40;12.27;;;24.50;63.90;;;;;;6124393;28;82954;-71
2022/06/17 09:19:52;;;;;;;15.43;10.93;;;24.40;63.20;;;;;;6123079;28;83315;-71
2022/06/17 09:22:52;;;;;;;16.73;10.95;;;24.50;63.10;;;;;;6115804;28;84247;-66
2022/06/17 09:25:53;;;;;;;21.73;11.25;;;24.50;63.00;;;;;;6128397;28;83037;-69
2022/06/17 09:28:54;;;;;;;21.30;11.65;;;24.50;63.10;;;;;;6124351;28;83121;-66
2022/06/17 09:31:54;;;;;;;20.92;13.23;;;24.50;62.70;;;;;;6127343;28;82858;-68
2022/06/17 09:34:55;;;;;;;21.30;12.57;;;24.50;62.20;;;;;;6130816;28;83162;-68
2022/06/17 09:37:55;;;;;;;15.35;11.00;;;24.40;62.60;;;;;;6133777;28;83074;-68
2022/06/17 09:40:56;;;;;;;18.52;13.63;;;24.40;62.20;;;;;;6124112;28;83554;-68
2022/06/17 09:43:56;;;;;;;22.65;12.55;;;24.30;62.00;;;;;;6132498;28;83162;-68
2022/06/17 09:46:57;;;;;;;21.38;13.98;;;24.20;62.00;;;;;;6125575;28;83495;-68
2022/06/17 09:49:57;;;;;;;24.45;14.43;;;24.10;61.20;;;;;;6121311;28;83925;-69
2022/06/17 09:52:58;;;;;;;23.30;12.73;;;24.10;61.60;;;;;;6133675;28;83087;-68
2022/06/17 09:55:58;;;;;;;21.45;12.38;;;24.10;61.50;;;;;;6124714;28;82847;-68
2022/06/17 09:58:59;;;;;;;19.77;12.20;;;24.10;61.40;;;;;;6132162;28;84354;-68
2022/06/17 10:01:59;;;;;;;22.23;13.02;;;24.00;61.70;;;;;;6133223;28;83021;-68
2022/06/17 10:05:00;;;;;;;19.30;11.70;;;24.10;61.50;;;;;;6133602;28;83224;-68
2022/06/17 10:08:00;;;;;;;18.40;11.50;;;24.00;61.70;;;;;;6132460;28;83507;-68
2022/06/17 10:11:01;;;;;;;16.30;12.02;;;24.00;61.50;;;;;;6129930;28;83222;-68
2022/06/17 10:14:01;;;;;;;22.35;14.52;;;24.00;61.50;;;;;;6139619;28;82982;-68
2022/06/17 10:20:21;;;;;;;21.67;13.45;;;24.00;61.60;;;;;;6124832;28;83005;-68
2022/06/17 10:23:21;;;;;;;22.23;12.65;;;23.80;61.60;;;;;;6132799;28;83392;-68
2022/06/17 10:26:25;;;;;;;20.33;12.95;;;23.80;61.90;;;;;;6131422;28;83905;-68
2022/06/17 10:29:25;;;;;;;19.63;12.55;;;23.90;61.80;;;;;;6133120;28;83373;-68
2022/06/17 10:32:26;;;;;;;17.67;10.73;;;24.00;61.40;;;;;;6130704;28;82852;-68
2022/06/17 10:35:26;;;;;;;16.73;11.48;;;24.00;61.40;;;;;;6125112;28;82981;-68
2022/06/17 10:38:28;;;;;;;15.93;10.77;;;24.00;61.30;;;;;;6135951;28;83972;-68
2022/06/17 10:41:28;;;;;;;20.75;11.43;;;24.00;61.30;;;;;;6132468;28;83448;-68
2022/06/17 10:44:29;;;;;;;14.95;10.02;;;23.90;61.30;;;;;;6132659;28;83001;-68
2022/06/17 10:47:29;;;;;;;19.45;11.38;;;24.00;61.30;;;;;;6139305;28;83788;-68
2022/06/17 10:50:30;;;;;;;17.98;9.85;;;23.90;61.30;;;;;;6129428;28;83913;-70
2022/06/17 10:53:30;;;;;;;13.63;9.82;;;23.90;61.00;;;;;;6127574;28;83548;-69
2022/06/17 10:56:31;;;;;;;17.10;10.07;;;24.00;61.00;;;;;;6135385;28;80503;-69
2022/06/17 10:59:31;;;;;;;11.18;6.90;;;24.00;60.90;;;;;;6125912;28;84227;-71
2022/06/17 11:02:32;;;;;;;11.93;6.28;;;24.00;59.80;;;;;;6128091;28;82841;-70
2022/06/17 11:05:34;;;;;;;12.90;5.70;;;24.00;58.60;;;;;;6135918;28;81397;-70
2022/06/17 11:08:34;;;;;;;11.77;5.97;;;24.00;57.80;;;;;;6133708;28;81410;-69
2022/06/17 11:14:54;;;;;;;10.77;7.28;;;24.00;59.00;;;;;;6132238;28;85853;-70
2022/06/17 11:17:54;;;;;;;19.25;11.57;;;24.00;59.90;;;;;;6126180;28;80432;-72
2022/06/17 11:20:55;;;;;;;20.88;11.00;;;24.00;60.60;;;;;;6131683;28;82966;-70
2022/06/17 11:23:57;;;;;;;17.90;11.70;;;24.10;60.50;;;;;;6124357;28;83059;-75
2022/06/17 11:26:57;;;;;;;18.73;11.95;;;24.20;60.30;;;;;;6125335;28;83192;-71
2022/06/17 11:29:58;;;;;;;17.80;11.48;;;24.20;60.60;;;;;;6123230;28;83434;-69
2022/06/17 11:32:58;;;;;;;23.05;12.95;;;24.30;60.60;;;;;;6121344;28;83083;-70
2022/06/17 11:35:59;;;;;;;19.83;12.73;;;24.40;60.50;;;;;;6117145;28;87740;-70
2022/06/17 11:38:59;;;;;;;19.15;12.18;;;24.30;60.30;;;;;;6121133;28;83296;-71
2022/06/17 11:42:00;;;;;;;18.98;11.70;;;24.30;60.30;;;;;;6124590;28;83013;-70
2022/06/17 11:45:00;;;;;;;16.58;10.93;;;24.40;60.00;;;;;;6119238;28;83527;-73
2022/06/17 11:48:01;;;;;;;24.08;11.32;;;24.50;60.10;;;;;;6121378;28;82968;-70
2022/06/17 11:51:01;;;;;;;17.60;10.30;;;24.50;60.00;;;;;;6108955;28;84701;-70
2022/06/17 11:54:02;;;;;;;18.83;10.80;;;24.50;59.10;;;;;;6111974;28;83144;-72
2022/06/17 11:57:02;;;;;;;18.77;9.35;;;24.30;59.30;;;;;;6125047;28;85473;-69
2022/06/17 12:00:04;;;;;;;13.75;8.23;;;24.40;58.30;;;;;;6120431;28;83025;-71
2022/06/17 12:03:12;;;;;;;8.02;5.55;;;24.40;58.10;;;;;;6114213;28;80716;-71
2022/06/17 12:06:13;;;;;;;9.52;5.10;;;24.40;55.40;;;;;;6112911;28;83389;-71
2022/06/17 12:09:13;;;;;;;10.85;5.00;;;24.40;55.90;;;;;;6116321;28;80583;-73
2022/06/17 12:12:14;;;;;;;8.48;4.22;;;24.40;54.50;;;;;;6128359;28;80590;-72
2022/06/17 12:15:14;;;;;;;9.02;3.67;;;24.30;53.20;;;;;;6123603;28;80786;-72
2022/06/17 12:18:15;;;;;;;5.40;4.10;;;24.30;52.30;;;;;;6121544;28;80458;-72
2022/06/17 12:21:15;;;;;;;5.13;3.42;;;24.30;52.10;;;;;;6126810;28;80583;-67
2022/06/17 12:24:17;;;;;;;6.20;3.08;;;24.30;51.90;;;;;;6118722;28;86932;-72
2022/06/17 12:27:17;;;;;;;4.80;3.17;;;24.20;52.20;;;;;;6129542;28;81124;-72
2022/06/17 12:30:18;;;;;;;3.75;3.05;;;24.30;52.00;;;;;;6128607;28;80367;-71
2022/06/17 12:33:21;;;;;;;7.10;3.20;;;24.30;51.80;;;;;;6130979;28;80362;-71
2022/06/17 12:36:21;;;;;;;5.47;2.65;;;24.30;51.70;;;;;;6133571;28;81257;-71
2022/06/17 12:39:22;;;;;;;4.40;2.88;;;24.30;52.00;;;;;;6132401;28;83028;-72
2022/06/17 12:42:22;;;;;;;4.88;2.85;;;24.30;51.80;;;;;;6119707;28;80938;-70
2022/06/17 12:45:23;;;;;;;4.20;2.92;;;24.30;52.10;;;;;;6119465;28;80582;-70
2022/06/17 12:48:23;;;;;;;6.55;3.22;;;24.30;51.40;;;;;;6124474;28;81381;-71
2022/06/17 12:54:43;;;;;;;4.18;2.58;;;24.20;48.90;;;;;;6125393;28;80665;-69
2022/06/17 12:57:43;;;;;;;4.38;2.47;;;24.10;48.70;;;;;;6127363;28;80071;-71
2022/06/17 13:00:44;;;;;;;4.38;2.78;;;24.20;49.30;;;;;;6131643;28;81683;-69
2022/06/17 13:03:44;;;;;;;4.53;2.50;;;24.20;49.60;;;;;;6124295;28;80680;-69
2022/06/17 13:06:45;;;;;;;4.72;2.67;;;24.20;50.70;;;;;;6118811;28;81419;-69
2022/06/17 13:09:45;;;;;;;5.22;2.55;;;24.20;50.80;;;;;;6132546;28;80690;-71
2022/06/17 13:12:46;;;;;;;3.50;2.40;;;24.30;51.00;;;;;;6128446;28;80190;-71
2022/06/17 13:15:46;;;;;;;4.30;2.65;;;24.30;50.90;;;;;;6146248;28;82371;-71
2022/06/17 13:18:47;;;;;;;3.78;2.65;;;24.40;51.00;;;;;;6126108;28;80292;-71
2022/06/17 13:21:47;;;;;;;6.70;2.70;;;24.40;51.10;;;;;;6137860;28;81213;-71
2022/06/17 13:24:48;;;;;;;4.80;2.65;;;24.40;51.10;;;;;;6137932;28;80594;-71
2022/06/17 13:27:48;;;;;;;11.18;2.95;;;24.40;51.40;;;;;;6135232;28;80487;-71
2022/06/17 13:30:49;;;;;;;7.00;3.05;;;24.50;52.20;;;;;;6129129;28;80451;-73
2022/06/17 13:33:49;;;;;;;3.30;2.90;;;24.50;52.80;;;;;;6131949;28;80471;-70
2022/06/17 13:36:50;;;;;;;5.68;3.30;;;24.50;53.00;;;;;;6132123;28;80784;-70
2022/06/17 13:39:50;;;;;;;4.93;3.00;;;24.50;53.00;;;;;;6122890;28;81302;-71
2022/06/17 13:42:51;;;;;;;6.22;3.55;;;24.50;53.20;;;;;;6119853;28;80347;-71
2022/06/17 13:45:51;;;;;;;3.92;2.88;;;24.60;53.40;;;;;;6124173;28;80490;-70
2022/06/17 13:48:52;;;;;;;4.20;3.22;;;24.60;53.50;;;;;;6127898;28;80423;-70
2022/06/17 13:51:52;;;;;;;5.32;3.13;;;24.70;53.50;;;;;;6126091;28;80463;-69
2022/06/17 13:54:53;;;;;;;5.85;3.25;;;24.60;53.50;;;;;;6133341;28;80450;-67
2022/06/17 13:57:53;;;;;;;6.32;3.17;;;24.60;54.10;;;;;;6126030;28;80454;-71
2022/06/17 14:00:54;;;;;;;3.38;2.97;;;24.60;54.20;;;;;;6119214;28;80824;-71
2022/06/17 14:03:54;;;;;;;3.20;2.88;;;24.70;54.30;;;;;;6119126;28;80281;-69
2022/06/17 14:06:55;;;;;;;3.90;2.90;;;24.70;54.40;;;;;;6128498;28;83451;-70
2022/06/17 14:09:55;;;;;;;5.20;3.80;;;24.70;54.40;;;;;;6116644;28;81395;-69
2022/06/17 14:12:56;;;;;;;4.78;3.78;;;24.70;54.30;;;;;;6114128;28;80800;-71
2022/06/17 14:15:56;;;;;;;3.70;3.15;;;24.70;54.20;;;;;;6118922;28;80532;-71
2022/06/17 14:18:57;;;;;;;5.82;3.55;;;24.70;54.40;;;;;;6123828;28;80877;-70
2022/06/17 14:21:58;;;;;;;4.88;3.10;;;24.70;53.90;;;;;;6129393;28;81411;-70
2022/06/17 14:24:58;;;;;;;12.05;4.03;;;24.70;54.20;;;;;;6130668;28;80512;-70
2022/06/17 14:27:59;;;;;;;5.07;3.15;;;24.80;54.20;;;;;;6127719;28;80671;-69
2022/06/17 14:30:59;;;;;;;4.13;2.95;;;24.80;54.50;;;;;;6162423;28;81474;-72
2022/06/17 14:34:00;;;;;;;5.10;2.88;;;24.80;54.40;;;;;;6136873;28;80706;-73
2022/06/17 14:37:00;;;;;;;10.40;2.60;;;24.90;54.60;;;;;;6132771;28;81684;-73
2022/06/17 14:40:01;;;;;;;3.63;2.63;;;24.90;54.20;;;;;;6131916;28;80509;-73
2022/06/17 14:43:01;;;;;;;2.17;1.98;;;24.90;53.80;;;;;;6138610;28;81454;-74
2022/06/17 14:46:02;;;;;;;6.10;2.17;;;24.90;53.60;;;;;;6130192;28;84699;-73
2022/06/17 14:49:02;;;;;;;3.97;2.60;;;24.90;53.60;;;;;;6145901;28;80772;-73
2022/06/17 14:52:03;;;;;;;3.65;2.20;;;24.90;53.40;;;;;;6135082;28;80582;-71
2022/06/17 14:55:03;;;;;;;5.07;2.03;;;24.90;53.10;;;;;;6127854;28;80784;-73
2022/06/17 14:58:04;;;;;;;6.03;2.00;;;24.90;53.20;;;;;;6117157;28;80989;-73
2022/06/17 15:01:04;;;;;;;3.50;1.77;;;24.90;53.20;;;;;;6129058;28;80212;-65
2022/06/17 15:04:05;;;;;;;3.60;2.08;;;24.90;53.10;;;;;;6141961;28;80659;-71
2022/06/17 15:07:05;;;;;;;4.05;2.20;;;24.90;53.00;;;;;;6130825;28;80305;-69
2022/06/17 15:10:06;;;;;;;5.35;2.13;;;24.90;53.00;;;;;;6134671;28;80339;-69
2022/06/17 15:13:06;;;;;;;3.80;2.08;;;24.90;52.90;;;;;;6133212;28;81613;-69
2022/06/17 15:16:07;;;;;;;8.50;2.08;;;24.80;52.50;;;;;;6132832;28;82213;-70
2022/06/17 15:19:07;;;;;;;2.00;1.48;;;24.80;52.70;;;;;;6137918;28;84339;-69
2022/06/17 15:22:08;;;;;;;2.90;2.10;;;24.80;52.60;;;;;;6134352;28;80892;-70
2022/06/17 15:25:08;;;;;;;4.43;1.70;;;24.80;52.50;;;;;;6137586;28;80467;-69
2022/06/17 15:28:09;;;;;;;4.43;1.73;;;24.80;52.20;;;;;;6131431;28;80704;-70
2022/06/17 15:31:09;;;;;;;6.55;1.83;;;24.80;52.80;;;;;;6122034;28;80714;-69
2022/06/17 15:34:10;;;;;;;2.65;1.77;;;24.80;52.90;;;;;;6135449;28;80510;-69
2022/06/17 15:37:10;;;;;;;3.10;2.10;;;24.70;52.80;;;;;;6131116;28;80780;-69
2022/06/17 15:40:11;;;;;;;1.70;1.60;;;24.70;52.90;;;;;;6109522;28;83881;-68
2022/06/17 15:43:11;;;;;;;2.05;1.70;;;24.70;52.90;;;;;;6132575;28;80318;-69
2022/06/17 15:46:12;;;;;;;3.53;1.90;;;24.70;53.00;;;;;;6133909;28;81610;-69
2022/06/17 15:49:13;;;;;;;2.40;1.80;;;24.70;53.00;;;;;;6121583;28;80639;-70
2022/06/17 15:52:13;;;;;;;2.30;1.75;;;24.70;53.20;;;;;;6115705;28;80542;-69